createdAt,value
2023-04-25T00:03:49.847Z,1.37
2023-04-25T00:06:23.078Z,1.70
2023-04-25T00:08:54.722Z,2.33
2023-04-25T00:11:25.432Z,1.60
2023-04-25T00:13:56.864Z,1.53
2023-04-25T00:16:32.323Z,1.20
2023-04-25T00:19:05.195Z,1.60
2023-04-25T00:21:36.676Z,1.30
2023-04-25T00:24:08.351Z,1.65
2023-04-25T00:26:45.397Z,1.20
2023-04-25T00:29:16.219Z,0.87
2023-04-25T00:31:46.873Z,1.33
2023-04-25T00:34:18.307Z,0.90
2023-04-25T00:36:49.700Z,1.25
2023-04-25T00:39:24.042Z,1.08
2023-04-25T00:41:58.780Z,1.83
2023-04-25T00:44:43.177Z,1.23
2023-04-25T00:47:13.533Z,1.67
2023-04-25T00:49:47.780Z,2.03
2023-04-25T00:52:29.553Z,1.13
2023-04-25T00:55:17.833Z,0.90
2023-04-25T00:58:04.464Z,1.30
2023-04-25T01:00:41.286Z,1.67
2023-04-25T01:03:18.778Z,1.53
2023-04-25T01:06:00.234Z,1.07
2023-04-25T01:08:34.043Z,0.73
2023-04-25T01:11:08.037Z,0.73
2023-04-25T01:13:38.542Z,0.70
2023-04-25T01:16:12.456Z,0.50
2023-04-25T01:18:52.953Z,0.60
2023-04-25T01:21:21.898Z,0.83
2023-04-25T01:23:52.346Z,0.80
2023-04-25T01:26:23.831Z,0.60
2023-04-25T01:28:54.843Z,0.52
2023-04-25T01:31:23.552Z,0.77
2023-04-25T01:34:04.123Z,0.60
2023-04-25T01:36:36.040Z,0.70
2023-04-25T01:39:19.344Z,0.50
2023-04-25T01:41:51.887Z,0.40
2023-04-25T01:44:20.765Z,0.50
2023-04-25T01:46:53.884Z,0.80
2023-04-25T01:49:38.979Z,0.57
2023-04-25T01:52:10.774Z,0.40
2023-04-25T01:54:48.033Z,0.47
2023-04-25T01:57:20.249Z,0.50
2023-04-25T01:59:57.192Z,0.80
2023-04-25T02:02:53.759Z,0.37
2023-04-25T02:05:32.425Z,0.70
2023-04-25T02:10:43.810Z,0.70
2023-04-25T02:13:33.981Z,0.63
2023-04-25T02:16:20.185Z,0.40
2023-04-25T02:18:56.980Z,0.50
2023-04-25T02:21:27.350Z,0.37
2023-04-25T02:26:44.604Z,0.40
2023-04-25T02:29:32.981Z,0.60
2023-04-25T02:32:06.722Z,0.60
2023-04-25T02:37:20.120Z,0.50
2023-04-25T02:39:50.654Z,0.37
2023-04-25T02:42:21.707Z,0.70
2023-04-25T02:44:55.179Z,0.50
2023-04-25T02:47:32.664Z,0.60
2023-04-25T02:50:15.396Z,0.33
2023-04-25T02:52:50.413Z,0.40
2023-04-25T02:55:36.871Z,0.83
2023-04-25T02:58:11.863Z,0.50
2023-04-25T03:00:55.798Z,0.57
2023-04-25T03:03:27.832Z,0.63
2023-04-25T03:06:00.053Z,0.50
2023-04-25T03:08:48.156Z,0.40
2023-04-25T03:11:23.977Z,0.97
2023-04-25T03:13:53.435Z,0.83
2023-04-25T03:16:31.181Z,0.57
2023-04-25T03:19:08.989Z,1.10
2023-04-25T03:21:38.234Z,1.10
2023-04-25T03:26:54.783Z,0.53
2023-04-25T03:29:29.868Z,0.90
2023-04-25T03:32:06.642Z,1.40
2023-04-25T03:34:36.746Z,1.43
2023-04-25T03:37:07.107Z,1.20
2023-04-25T03:39:47.078Z,1.07
2023-04-25T03:42:17.906Z,0.80
2023-04-25T03:44:58.585Z,1.00
2023-04-25T03:47:29.889Z,1.00
2023-04-25T03:50:06.633Z,1.17
2023-04-25T03:52:35.378Z,1.10
2023-04-25T03:55:21.848Z,1.15
2023-04-25T03:57:52.232Z,0.60
2023-04-25T04:00:27.550Z,0.87
2023-04-25T04:02:59.006Z,1.03
2023-04-25T04:05:31.285Z,1.07
2023-04-25T04:10:35.832Z,1.10
2023-04-25T04:13:12.059Z,0.80
2023-04-25T04:15:55.659Z,0.83
2023-04-25T04:18:29.207Z,1.20
2023-04-25T04:21:05.463Z,0.90
2023-04-25T04:23:44.561Z,0.80
2023-04-25T04:26:33.997Z,1.03
2023-04-25T04:29:19.893Z,1.00
2023-04-25T04:32:02.087Z,1.50
2023-04-25T04:34:38.820Z,1.00
2023-04-25T04:37:08.191Z,1.27
2023-04-25T04:39:41.726Z,2.38
2023-04-25T04:42:26.924Z,1.87
2023-04-25T04:45:40.453Z,1.97
2023-04-25T04:48:19.681Z,2.23
2023-04-25T04:51:18.549Z,1.90
2023-04-25T04:53:52.784Z,2.03
2023-04-25T04:56:44.458Z,2.27
2023-04-25T04:59:33.631Z,2.23
2023-04-25T05:02:34.829Z,2.33
2023-04-25T05:05:23.339Z,2.50
2023-04-25T05:08:31.051Z,2.13
2023-04-25T05:11:24.996Z,1.83
2023-04-25T05:14:22.596Z,3.00
2023-04-25T05:17:12.106Z,2.30
2023-04-25T05:20:22.625Z,2.23
2023-04-25T05:23:11.144Z,1.83
2023-04-25T05:26:17.874Z,2.10
2023-04-25T05:28:56.671Z,2.00
2023-04-25T05:31:50.177Z,1.80
2023-04-25T05:34:26.374Z,2.17
2023-04-25T05:37:15.468Z,2.50
2023-04-25T05:39:57.666Z,2.10
2023-04-25T05:42:40.560Z,2.03
2023-04-25T05:45:49.909Z,2.33
2023-04-25T05:48:48.548Z,1.70
2023-04-25T05:51:40.883Z,2.07
2023-04-25T05:54:30.681Z,1.73
2023-04-25T05:57:06.135Z,1.83
2023-04-25T05:59:37.189Z,2.10
2023-04-25T06:02:09.577Z,2.00
2023-04-25T06:04:43.221Z,1.70
2023-04-25T06:07:12.579Z,1.70
2023-04-25T06:09:52.575Z,1.67
2023-04-25T06:12:26.548Z,1.20
2023-04-25T06:14:57.626Z,2.23
2023-04-25T06:17:28.931Z,1.70
2023-04-25T06:20:01.607Z,2.10
2023-04-25T06:22:33.936Z,1.87
2023-04-25T06:25:06.084Z,1.90
2023-04-25T06:30:22.459Z,1.43
2023-04-25T06:33:03.553Z,1.70
2023-04-25T06:35:42.197Z,2.13
2023-04-25T06:38:15.956Z,1.27
2023-04-25T06:41:08.926Z,1.57
2023-04-25T06:43:41.676Z,1.17
2023-04-25T06:46:34.754Z,1.20
2023-04-25T06:49:06.727Z,1.40
2023-04-25T06:54:16.382Z,1.43
2023-04-25T06:57:01.637Z,1.40
2023-04-25T07:02:18.932Z,1.17
2023-04-25T07:04:51.309Z,1.70
2023-04-25T07:07:27.148Z,1.70
2023-04-25T07:10:10.608Z,2.37
2023-04-25T07:12:40.946Z,1.57
2023-04-25T07:15:12.934Z,1.47
2023-04-25T07:17:47.315Z,1.73
2023-04-25T07:23:03.288Z,1.40
2023-04-25T07:25:36.127Z,1.03
2023-04-25T07:28:13.796Z,1.27
2023-04-25T07:30:56.228Z,1.53
2023-04-25T07:33:37.034Z,1.10
2023-04-25T07:36:07.750Z,1.00
2023-04-25T07:38:36.427Z,1.17
2023-04-25T07:41:06.944Z,1.07
2023-04-25T07:43:38.435Z,1.03
2023-04-25T07:46:20.498Z,1.30
2023-04-25T07:49:00.079Z,1.75
2023-04-25T07:51:46.432Z,1.17
2023-04-25T07:57:15.488Z,1.00
2023-04-25T07:59:57.200Z,0.90
2023-04-25T08:02:31.972Z,0.87
2023-04-25T08:05:12.079Z,0.80
2023-04-25T08:07:46.111Z,0.80
2023-04-25T08:10:20.444Z,1.00
2023-04-25T08:13:04.046Z,0.90
2023-04-25T08:15:50.234Z,1.10
2023-04-25T08:18:21.353Z,1.07
2023-04-25T08:20:53.961Z,1.10
2023-04-25T08:23:24.692Z,0.98
2023-04-25T08:26:31.646Z,1.03
2023-04-25T08:29:08.148Z,1.10
2023-04-25T08:31:46.682Z,1.00
2023-04-25T08:34:16.751Z,1.50
2023-04-25T08:36:51.875Z,1.30
2023-04-25T08:39:45.628Z,0.87
2023-04-25T08:42:45.720Z,0.83
2023-04-25T08:45:18.814Z,1.08
2023-04-25T08:47:53.248Z,1.15
2023-04-25T08:50:27.475Z,0.57
2023-04-25T08:53:16.832Z,0.77
2023-04-25T08:55:47.111Z,1.03
2023-04-25T08:58:22.366Z,1.03
2023-04-25T09:00:54.789Z,0.77
2023-04-25T09:03:29.297Z,1.40
2023-04-25T09:06:07.806Z,0.97
2023-04-25T09:08:57.228Z,1.33
2023-04-25T09:11:26.547Z,0.80
2023-04-25T09:14:28.801Z,0.95
2023-04-25T09:17:16.779Z,0.90
2023-04-25T09:20:13.576Z,0.73
2023-04-25T09:22:46.295Z,0.77
2023-04-25T09:25:26.375Z,1.20
2023-04-25T09:27:58.562Z,0.90
2023-04-25T09:30:46.717Z,0.83
2023-04-25T09:33:54.645Z,0.57
2023-04-25T09:36:29.253Z,0.80
2023-04-25T09:39:34.175Z,0.70
2023-04-25T09:42:19.859Z,0.93
2023-04-25T09:44:51.911Z,0.65
2023-04-25T09:47:23.069Z,1.07
2023-04-25T09:49:54.834Z,0.90
2023-04-25T09:52:26.223Z,0.63
2023-04-25T09:55:25.444Z,1.27
2023-04-25T09:58:07.293Z,0.70
2023-04-25T10:00:41.478Z,0.80
2023-04-25T10:03:28.271Z,0.57
2023-04-25T10:06:24.823Z,0.83
2023-04-25T10:09:08.364Z,0.63
2023-04-25T10:11:50.270Z,0.60
2023-04-25T10:14:26.967Z,0.80
2023-04-25T10:16:59.014Z,0.57
2023-04-25T10:19:44.239Z,0.80
2023-04-25T10:22:36.488Z,0.60
2023-04-25T10:25:15.577Z,0.60
2023-04-25T10:27:45.808Z,0.80
2023-04-25T10:30:28.795Z,0.67
2023-04-25T10:33:04.817Z,0.40
2023-04-25T10:35:39.626Z,0.40
2023-04-25T10:38:21.569Z,0.53
2023-04-25T10:41:11.950Z,0.50
2023-04-25T10:43:54.768Z,0.50
2023-04-25T10:46:39.739Z,0.60
2023-04-25T10:49:16.415Z,0.80
2023-04-25T10:51:55.517Z,0.60
2023-04-25T10:54:27.258Z,0.67
2023-04-25T10:57:02.191Z,0.63
2023-04-25T10:59:32.967Z,0.57
2023-04-25T11:02:03.714Z,0.50
2023-04-25T11:04:44.746Z,0.90
2023-04-25T11:07:36.684Z,0.87
2023-04-25T11:10:22.620Z,0.65
2023-04-25T11:12:57.122Z,0.83
2023-04-25T11:15:25.722Z,0.60
2023-04-25T11:18:26.837Z,0.80
2023-04-25T11:20:58.418Z,0.50
2023-04-25T11:26:11.940Z,0.60
2023-04-25T11:28:42.674Z,0.50
2023-04-25T11:31:12.182Z,0.87
2023-04-25T11:33:51.052Z,0.60
2023-04-25T11:36:22.741Z,0.60
2023-04-25T11:39:03.458Z,0.40
2023-04-25T11:41:42.891Z,0.80
2023-04-25T11:44:23.776Z,0.73
2023-04-25T11:46:54.728Z,0.70
2023-04-25T11:49:28.837Z,0.63
2023-04-25T11:51:59.743Z,0.70
2023-04-25T11:54:33.450Z,0.80
2023-04-25T11:57:06.432Z,0.33
2023-04-25T11:59:41.021Z,0.77
2023-04-25T12:02:15.827Z,0.60
2023-04-25T12:04:44.860Z,0.60
2023-04-25T12:07:33.698Z,0.77
2023-04-25T12:10:23.722Z,0.80
2023-04-25T12:12:58.645Z,0.57
2023-04-25T12:15:30.221Z,0.40
2023-04-25T12:18:00.857Z,0.60
2023-04-25T12:20:30.086Z,0.30
2023-04-25T12:23:01.382Z,0.70
2023-04-25T12:25:47.025Z,0.47
2023-04-25T12:28:24.645Z,0.37
2023-04-25T12:31:18.516Z,0.50
2023-04-25T12:33:49.481Z,0.57
2023-04-25T12:36:28.532Z,0.45
2023-04-25T12:39:07.586Z,0.43
2023-04-25T12:41:47.859Z,0.43
2023-04-25T12:44:21.596Z,0.63
2023-04-25T12:46:53.453Z,0.57
2023-04-25T12:49:27.516Z,0.47
2023-04-25T12:51:57.786Z,0.93
2023-04-25T12:54:27.918Z,0.50
2023-04-25T12:59:42.151Z,0.87
2023-04-25T13:02:13.005Z,0.60
2023-04-25T13:04:46.896Z,0.70
2023-04-25T13:07:17.934Z,0.70
2023-04-25T13:09:51.952Z,0.40
2023-04-25T13:12:37.237Z,0.70
2023-04-25T13:15:11.229Z,0.63
2023-04-25T13:17:48.134Z,0.60
2023-04-25T13:20:23.187Z,0.40
2023-04-25T13:23:09.194Z,0.43
2023-04-25T13:25:39.719Z,0.80
2023-04-25T13:28:09.212Z,0.43
2023-04-25T13:30:40.182Z,0.70
2023-04-25T13:33:17.426Z,0.97
2023-04-25T13:35:48.585Z,0.73
2023-04-25T13:38:19.725Z,0.55
2023-04-25T13:40:50.590Z,0.60
2023-04-25T13:43:32.522Z,0.73
2023-04-25T13:46:04.665Z,0.20
2023-04-25T13:48:52.754Z,0.70
2023-04-25T13:51:25.012Z,0.77
2023-04-25T13:53:53.620Z,0.55
2023-04-25T13:56:22.582Z,0.40
2023-04-25T13:58:56.791Z,0.37
2023-04-25T14:01:25.072Z,0.50
2023-04-25T14:03:58.046Z,0.37
2023-04-25T14:06:32.169Z,0.60
2023-04-25T14:09:14.573Z,0.60
2023-04-25T14:11:45.291Z,0.70
2023-04-25T14:14:17.183Z,0.73
2023-04-25T14:16:48.212Z,0.50
2023-04-25T14:19:28.192Z,0.50
2023-04-25T14:22:13.678Z,0.50
2023-04-25T14:24:45.812Z,3.97
2023-04-25T14:27:17.253Z,1.27
2023-04-25T14:29:47.896Z,1.30
2023-04-25T14:32:21.649Z,0.80
2023-04-25T14:34:52.056Z,0.70
2023-04-25T14:37:23.975Z,0.60
2023-04-25T14:39:53.498Z,0.57
2023-04-25T14:42:25.353Z,0.50
2023-04-25T14:45:02.590Z,0.30
2023-04-25T14:47:33.389Z,0.50
2023-04-25T14:50:21.635Z,0.35
2023-04-25T14:52:53.824Z,0.60
2023-04-25T14:58:12.681Z,0.60
2023-04-25T15:00:49.195Z,0.60
2023-04-25T15:03:26.863Z,0.50
2023-04-25T15:05:59.995Z,0.57
2023-04-25T15:08:28.762Z,0.80
2023-04-25T15:10:59.161Z,0.50
2023-04-25T15:13:39.817Z,0.43
2023-04-25T15:16:13.222Z,0.57
2023-04-25T15:18:48.654Z,0.50
2023-04-25T15:21:26.950Z,0.60
2023-04-25T15:24:03.410Z,0.50
2023-04-25T15:26:47.850Z,0.30
2023-04-25T15:29:18.994Z,0.60
2023-04-25T15:31:51.921Z,0.38
2023-04-25T15:34:25.488Z,0.63
2023-04-25T15:36:59.991Z,0.30
2023-04-25T15:39:33.362Z,0.40
2023-04-25T15:44:49.270Z,0.40
2023-04-25T15:50:07.815Z,0.40
2023-04-25T15:52:39.415Z,0.20
2023-04-25T15:57:49.137Z,0.73
2023-04-25T16:00:30.425Z,0.30
2023-04-25T16:03:01.605Z,0.50
2023-04-25T16:05:31.167Z,0.40
2023-04-25T16:08:01.830Z,0.40
2023-04-25T16:10:39.267Z,0.40
2023-04-25T16:13:11.252Z,0.40
2023-04-25T16:15:45.405Z,0.40
2023-04-25T16:18:13.908Z,0.30
2023-04-25T16:20:49.022Z,0.53
2023-04-25T16:23:25.171Z,0.60
2023-04-25T16:25:58.595Z,0.40
2023-04-25T16:28:39.282Z,0.30
2023-04-25T16:31:20.044Z,0.37
2023-04-25T16:33:58.837Z,0.10
2023-04-25T16:36:35.069Z,0.30
2023-04-25T16:39:09.745Z,0.50
2023-04-25T16:41:38.755Z,0.50
2023-04-25T16:44:09.268Z,0.57
2023-04-25T16:46:39.127Z,0.67
2023-04-25T16:49:12.247Z,0.53
2023-04-25T16:51:45.628Z,0.40
2023-04-25T16:54:24.590Z,0.45
2023-04-25T16:57:00.935Z,0.70
2023-04-25T16:59:45.038Z,0.50
2023-04-25T17:02:20.630Z,0.50
2023-04-25T17:04:51.093Z,0.43
2023-04-25T17:07:26.933Z,1.10
2023-04-25T17:10:01.423Z,0.70
2023-04-25T17:12:36.566Z,0.60
2023-04-25T17:15:22.182Z,0.57
2023-04-25T17:17:54.968Z,0.67
2023-04-25T17:20:26.538Z,0.55
2023-04-25T17:22:59.484Z,0.55
2023-04-25T17:25:27.482Z,0.43
2023-04-25T17:28:01.710Z,0.67
2023-04-25T17:30:34.447Z,0.50
2023-04-25T17:33:10.246Z,0.57
2023-04-25T17:35:38.757Z,0.40
2023-04-25T17:38:10.769Z,0.50
2023-04-25T17:40:43.450Z,0.50
2023-04-25T17:43:14.441Z,0.30
2023-04-25T17:45:48.435Z,0.30
2023-04-25T17:48:24.007Z,0.50
2023-04-25T17:50:56.501Z,0.40
2023-04-25T17:53:35.698Z,0.50
2023-04-25T17:56:26.716Z,0.40
2023-04-25T17:58:59.220Z,0.40
2023-04-25T18:01:30.455Z,0.67
2023-04-25T18:04:04.179Z,1.00
2023-04-25T18:06:41.537Z,0.90
2023-04-25T18:09:23.820Z,0.80
2023-04-25T18:12:02.402Z,0.80
2023-04-25T18:14:32.709Z,0.90
2023-04-25T18:17:04.231Z,1.23
2023-04-25T18:19:44.221Z,1.80
2023-04-25T18:22:22.090Z,1.50
2023-04-25T18:25:01.558Z,1.07
2023-04-25T18:27:31.903Z,1.30
2023-04-25T18:30:05.217Z,2.43
2023-04-25T18:32:34.450Z,1.70
2023-04-25T18:35:22.591Z,1.67
2023-04-25T18:37:54.262Z,1.80
2023-04-25T18:40:26.876Z,1.05
2023-04-25T18:42:57.413Z,1.10
2023-04-25T18:45:27.552Z,1.00
2023-04-25T18:48:03.746Z,1.43
2023-04-25T18:50:33.678Z,1.10
2023-04-25T18:53:07.484Z,1.60
2023-04-25T18:55:37.567Z,1.40
2023-04-25T18:58:11.410Z,2.20
2023-04-25T19:00:42.665Z,2.43
2023-04-25T19:03:23.064Z,1.38
2023-04-25T19:05:54.412Z,1.70
2023-04-25T19:08:27.103Z,2.22
2023-04-25T19:11:07.582Z,3.53
2023-04-25T19:13:51.266Z,2.70
2023-04-25T19:16:24.268Z,2.33
2023-04-25T19:18:54.060Z,1.93
2023-04-25T19:21:25.432Z,1.87
2023-04-25T19:23:56.916Z,1.90
2023-04-25T19:26:33.115Z,1.95
2023-04-25T19:29:22.645Z,1.77
2023-04-25T19:31:52.464Z,1.60
2023-04-25T19:34:28.458Z,2.20
2023-04-25T19:37:04.444Z,2.10
2023-04-25T19:42:21.532Z,2.27
2023-04-25T19:44:49.857Z,1.70
2023-04-25T19:47:20.171Z,1.90
2023-04-25T19:50:02.333Z,1.63
2023-04-25T19:52:32.664Z,1.87
2023-04-25T19:55:10.566Z,1.50
2023-04-25T19:57:41.704Z,1.60
2023-04-25T20:00:26.075Z,1.70
2023-04-25T20:02:57.615Z,1.90
2023-04-25T20:05:27.157Z,1.93
2023-04-25T20:08:03.504Z,1.90
2023-04-25T20:10:32.266Z,1.47
2023-04-25T20:13:06.631Z,1.90
2023-04-25T20:15:34.909Z,2.23
2023-04-25T20:18:05.483Z,4.30
2023-04-25T20:20:36.866Z,3.10
2023-04-25T20:23:10.630Z,2.28
2023-04-25T20:25:46.267Z,2.10
2023-04-25T20:31:10.613Z,1.97
2023-04-25T20:33:45.728Z,1.60
2023-04-25T20:36:19.316Z,2.70
2023-04-25T20:38:54.970Z,1.90
2023-04-25T20:41:37.395Z,1.90
2023-04-25T20:44:16.502Z,1.42
2023-04-25T20:46:51.175Z,2.20
2023-04-25T20:49:20.205Z,1.83
2023-04-25T20:51:55.340Z,1.70
2023-04-25T20:54:27.007Z,2.10
2023-04-25T20:56:57.861Z,2.13
2023-04-25T20:59:28.800Z,1.63
2023-04-25T21:02:02.525Z,1.60
2023-04-25T21:04:39.684Z,1.83
2023-04-25T21:07:15.318Z,1.93
2023-04-25T21:09:50.704Z,1.13
2023-04-25T21:12:21.475Z,1.47
2023-04-25T21:14:53.057Z,2.00
2023-04-25T21:17:23.490Z,1.58
2023-04-25T21:19:59.717Z,1.50
2023-04-25T21:22:31.478Z,1.87
2023-04-25T21:25:09.608Z,1.00
2023-04-25T21:27:44.595Z,1.30
2023-04-25T21:30:17.175Z,1.37
2023-04-25T21:32:54.332Z,1.17
2023-04-25T21:35:25.015Z,1.63
2023-04-25T21:37:55.391Z,1.87
2023-04-25T21:40:23.321Z,1.57
2023-04-25T21:42:59.349Z,1.07
2023-04-25T21:45:32.094Z,1.53
2023-04-25T21:48:04.779Z,1.33
2023-04-25T21:50:34.109Z,1.20
2023-04-25T21:53:02.908Z,1.57
2023-04-25T21:55:45.317Z,1.90
2023-04-25T22:00:49.537Z,1.47
2023-04-25T22:03:26.628Z,1.40
2023-04-25T22:06:00.874Z,0.93
2023-04-25T22:08:32.536Z,1.23
2023-04-25T22:11:10.286Z,1.75
2023-04-25T22:13:40.257Z,1.10
2023-04-25T22:16:24.485Z,0.90
2023-04-25T22:18:58.470Z,1.37
2023-04-25T22:21:35.837Z,1.30
2023-04-25T22:24:15.724Z,1.27
2023-04-25T22:27:00.735Z,1.50
2023-04-25T22:29:34.874Z,1.63
2023-04-25T22:32:10.653Z,1.43
2023-04-25T22:34:42.650Z,1.40
2023-04-25T22:37:17.707Z,1.30
2023-04-25T22:39:50.853Z,1.23
2023-04-25T22:42:25.238Z,1.27
2023-04-25T22:44:59.457Z,1.20
2023-04-25T22:47:33.585Z,0.80
2023-04-25T22:50:08.474Z,1.60
2023-04-25T22:52:48.162Z,0.90
2023-04-25T22:55:18.583Z,0.73
2023-04-25T22:57:48.619Z,0.70
2023-04-25T23:00:30.697Z,0.63
2023-04-25T23:03:04.271Z,0.67
2023-04-25T23:05:35.362Z,0.60
2023-04-25T23:08:09.313Z,1.10
2023-04-25T23:10:43.994Z,0.80
2023-04-25T23:13:19.857Z,1.30
2023-04-25T23:18:37.212Z,0.63
2023-04-25T23:21:16.028Z,0.83
2023-04-25T23:23:46.792Z,0.73
2023-04-25T23:26:16.863Z,0.80
2023-04-25T23:28:50.550Z,0.90
2023-04-25T23:31:20.729Z,0.87
2023-04-25T23:33:58.155Z,0.70
2023-04-25T23:36:31.048Z,0.40
2023-04-25T23:39:02.627Z,0.70
2023-04-25T23:44:20.360Z,1.10
2023-04-25T23:46:52.712Z,0.53
2023-04-25T23:52:12.036Z,0.90
2023-04-25T23:54:45.828Z,0.70
2023-04-25T23:57:18.977Z,0.80
2023-04-25T23:59:49.833Z,0.93
